sensor_id;sensor_type;location;lat;lon;timestamp;temperature;humidity
40670;DHT22;26355;45.528;9.234;2023-07-31T00:01:43;28.40;99.90
40670;DHT22;26355;45.528;9.234;2023-07-31T00:04:09;28.40;99.90
40670;DHT22;26355;45.528;9.234;2023-07-31T00:06:35;28.30;99.90
40670;DHT22;26355;45.528;9.234;2023-07-31T00:09:00;28.30;99.90
40670;DHT22;26355;45.528;9.234;2023-07-31T00:11:26;28.20;99.90
40670;DHT22;26355;45.528;9.234;2023-07-31T00:13:53;28.20;99.90
40670;DHT22;26355;45.528;9.234;2023-07-31T00:16:19;28.20;99.90
40670;DHT22;26355;45.528;9.234;2023-07-31T00:18:44;28.10;99.90
40670;DHT22;26355;45.528;9.234;2023-07-31T00:21:10;28.10;99.90
40670;DHT22;26355;45.528;9.234;2023-07-31T00:23:36;28.10;99.90
40670;DHT22;26355;45.528;9.234;2023-07-31T00:26:01;28.10;99.90
40670;DHT22;26355;45.528;9.234;2023-07-31T00:28:27;28.00;99.90
40670;DHT22;26355;45.528;9.234;2023-07-31T00:30:54;28.00;99.90
40670;DHT22;26355;45.528;9.234;2023-07-31T00:33:19;28.00;99.90
40670;DHT22;26355;45.528;9.234;2023-07-31T00:35:45;28.00;99.90
40670;DHT22;26355;45.528;9.234;2023-07-31T00:38:10;28.00;99.90
40670;DHT22;26355;45.528;9.234;2023-07-31T00:40:37;28.00;99.90
40670;DHT22;26355;45.528;9.234;2023-07-31T00:43:03;28.00;99.90
40670;DHT22;26355;45.528;9.234;2023-07-31T00:45:29;27.90;99.90
40670;DHT22;26355;45.528;9.234;2023-07-31T00:47:55;27.90;99.90
40670;DHT22;26355;45.528;9.234;2023-07-31T00:50:24;27.90;99.90
40670;DHT22;26355;45.528;9.234;2023-07-31T00:52:49;28.00;99.90
40670;DHT22;26355;45.528;9.234;2023-07-31T00:55:15;27.90;99.90
40670;DHT22;26355;45.528;9.234;2023-07-31T00:57:41;27.90;99.90
40670;DHT22;26355;45.528;9.234;2023-07-31T01:13:44;27.80;99.90
40670;DHT22;26355;45.528;9.234;2023-07-31T01:57:51;27.30;99.90
40670;DHT22;26355;45.528;9.234;2023-07-31T02:07:52;27.30;99.90
40670;DHT22;26355;45.528;9.234;2023-07-31T02:21:47;27.10;99.90
40670;DHT22;26355;45.528;9.234;2023-07-31T02:25:39;27.10;99.90
40670;DHT22;26355;45.528;9.234;2023-07-31T02:29:16;27.00;99.90
40670;DHT22;26355;45.528;9.234;2023-07-31T02:36:24;27.00;99.90
40670;DHT22;26355;45.528;9.234;2023-07-31T02:39:35;27.00;99.90
40670;DHT22;26355;45.528;9.234;2023-07-31T02:43:04;26.90;99.90
40670;DHT22;26355;45.528;9.234;2023-07-31T02:46:28;26.90;99.90
40670;DHT22;26355;45.528;9.234;2023-07-31T02:48:53;26.90;99.90
40670;DHT22;26355;45.528;9.234;2023-07-31T02:51:19;26.90;99.90
40670;DHT22;26355;45.528;9.234;2023-07-31T02:53:47;26.90;99.90
40670;DHT22;26355;45.528;9.234;2023-07-31T02:56:13;26.90;99.90
40670;DHT22;26355;45.528;9.234;2023-07-31T02:58:38;26.90;99.90
40670;DHT22;26355;45.528;9.234;2023-07-31T03:01:04;26.90;99.90
40670;DHT22;26355;45.528;9.234;2023-07-31T03:03:30;26.90;99.90
40670;DHT22;26355;45.528;9.234;2023-07-31T03:05:55;26.90;99.90
40670;DHT22;26355;45.528;9.234;2023-07-31T03:08:21;26.90;99.90
40670;DHT22;26355;45.528;9.234;2023-07-31T03:10:46;26.90;99.90
40670;DHT22;26355;45.528;9.234;2023-07-31T03:13:12;26.90;99.90
40670;DHT22;26355;45.528;9.234;2023-07-31T03:15:37;26.90;99.90
40670;DHT22;26355;45.528;9.234;2023-07-31T03:18:03;26.80;99.90
40670;DHT22;26355;45.528;9.234;2023-07-31T03:20:29;26.90;99.90
40670;DHT22;26355;45.528;9.234;2023-07-31T03:22:54;26.90;99.90
40670;DHT22;26355;45.528;9.234;2023-07-31T03:25:20;26.80;99.90
40670;DHT22;26355;45.528;9.234;2023-07-31T03:27:45;26.90;99.90
40670;DHT22;26355;45.528;9.234;2023-07-31T03:30:11;26.90;99.90
40670;DHT22;26355;45.528;9.234;2023-07-31T03:32:36;26.80;99.90
40670;DHT22;26355;45.528;9.234;2023-07-31T03:35:02;26.80;99.90
40670;DHT22;26355;45.528;9.234;2023-07-31T03:37:28;26.80;99.90
40670;DHT22;26355;45.528;9.234;2023-07-31T03:39:54;26.90;99.90
40670;DHT22;26355;45.528;9.234;2023-07-31T03:42:20;26.80;99.90
40670;DHT22;26355;45.528;9.234;2023-07-31T03:44:45;26.80;99.90
40670;DHT22;26355;45.528;9.234;2023-07-31T03:47:11;26.80;99.90
40670;DHT22;26355;45.528;9.234;2023-07-31T03:49:36;26.90;99.90
40670;DHT22;26355;45.528;9.234;2023-07-31T03:52:02;26.80;99.90
40670;DHT22;26355;45.528;9.234;2023-07-31T03:54:28;26.80;99.90
40670;DHT22;26355;45.528;9.234;2023-07-31T03:56:53;26.90;99.90
40670;DHT22;26355;45.528;9.234;2023-07-31T03:59:19;26.90;99.90
40670;DHT22;26355;45.528;9.234;2023-07-31T04:01:44;27.00;99.90
40670;DHT22;26355;45.528;9.234;2023-07-31T04:04:13;26.90;99.90
40670;DHT22;26355;45.528;9.234;2023-07-31T04:06:38;26.90;99.90
40670;DHT22;26355;45.528;9.234;2023-07-31T04:09:04;26.90;99.90
40670;DHT22;26355;45.528;9.234;2023-07-31T04:11:29;26.90;99.90
40670;DHT22;26355;45.528;9.234;2023-07-31T04:13:55;26.90;99.90
40670;DHT22;26355;45.528;9.234;2023-07-31T04:16:21;26.90;99.90
40670;DHT22;26355;45.528;9.234;2023-07-31T04:18:46;26.90;99.90
40670;DHT22;26355;45.528;9.234;2023-07-31T04:21:12;26.90;99.90
40670;DHT22;26355;45.528;9.234;2023-07-31T04:23:38;26.90;99.90
40670;DHT22;26355;45.528;9.234;2023-07-31T04:26:03;27.00;99.90
40670;DHT22;26355;45.528;9.234;2023-07-31T04:28:29;27.00;99.90
40670;DHT22;26355;45.528;9.234;2023-07-31T04:30:57;27.00;99.90
40670;DHT22;26355;45.528;9.234;2023-07-31T04:33:22;27.00;99.90
40670;DHT22;26355;45.528;9.234;2023-07-31T04:35:52;27.00;99.90
40670;DHT22;26355;45.528;9.234;2023-07-31T04:38:19;27.00;99.90
40670;DHT22;26355;45.528;9.234;2023-07-31T04:40:45;27.00;99.90
40670;DHT22;26355;45.528;9.234;2023-07-31T04:43:11;27.00;99.90
40670;DHT22;26355;45.528;9.234;2023-07-31T04:45:36;27.00;99.90
40670;DHT22;26355;45.528;9.234;2023-07-31T04:48:02;27.10;99.90
40670;DHT22;26355;45.528;9.234;2023-07-31T04:50:27;27.10;99.90
40670;DHT22;26355;45.528;9.234;2023-07-31T04:52:55;27.10;99.90
40670;DHT22;26355;45.528;9.234;2023-07-31T04:55:21;27.10;99.90
40670;DHT22;26355;45.528;9.234;2023-07-31T04:57:46;27.10;99.90
40670;DHT22;26355;45.528;9.234;2023-07-31T05:00:12;27.10;99.90
40670;DHT22;26355;45.528;9.234;2023-07-31T05:02:38;27.10;99.90
40670;DHT22;26355;45.528;9.234;2023-07-31T05:05:03;27.10;99.90
40670;DHT22;26355;45.528;9.234;2023-07-31T05:07:29;27.20;99.90
40670;DHT22;26355;45.528;9.234;2023-07-31T05:09:54;27.20;99.90
40670;DHT22;26355;45.528;9.234;2023-07-31T05:12:20;27.30;99.90
40670;DHT22;26355;45.528;9.234;2023-07-31T05:14:46;27.30;99.90
40670;DHT22;26355;45.528;9.234;2023-07-31T05:17:11;27.30;99.90
40670;DHT22;26355;45.528;9.234;2023-07-31T05:19:37;27.30;99.90
40670;DHT22;26355;45.528;9.234;2023-07-31T05:22:02;27.40;99.90
40670;DHT22;26355;45.528;9.234;2023-07-31T05:24:28;27.40;99.90
40670;DHT22;26355;45.528;9.234;2023-07-31T05:26:54;27.30;99.90
40670;DHT22;26355;45.528;9.234;2023-07-31T05:29:19;27.40;99.90
40670;DHT22;26355;45.528;9.234;2023-07-31T05:31:45;27.40;99.90
40670;DHT22;26355;45.528;9.234;2023-07-31T05:34:10;27.50;99.90
40670;DHT22;26355;45.528;9.234;2023-07-31T05:36:36;27.40;99.90
40670;DHT22;26355;45.528;9.234;2023-07-31T05:39:01;27.40;99.90
40670;DHT22;26355;45.528;9.234;2023-07-31T05:41:34;27.50;99.90
40670;DHT22;26355;45.528;9.234;2023-07-31T05:44:00;27.50;99.90
40670;DHT22;26355;45.528;9.234;2023-07-31T05:46:26;27.50;99.90
40670;DHT22;26355;45.528;9.234;2023-07-31T05:48:51;27.60;99.90
40670;DHT22;26355;45.528;9.234;2023-07-31T05:51:17;27.60;99.90
40670;DHT22;26355;45.528;9.234;2023-07-31T05:53:42;27.70;99.90
40670;DHT22;26355;45.528;9.234;2023-07-31T05:56:09;27.70;99.90
40670;DHT22;26355;45.528;9.234;2023-07-31T05:58:34;27.70;99.90
40670;DHT22;26355;45.528;9.234;2023-07-31T06:01:00;27.70;99.90
40670;DHT22;26355;45.528;9.234;2023-07-31T06:03:25;27.70;99.90
40670;DHT22;26355;45.528;9.234;2023-07-31T06:05:51;27.70;99.90
40670;DHT22;26355;45.528;9.234;2023-07-31T06:08:16;27.80;99.90
40670;DHT22;26355;45.528;9.234;2023-07-31T06:10:42;27.80;99.90
40670;DHT22;26355;45.528;9.234;2023-07-31T06:13:08;27.80;99.90
40670;DHT22;26355;45.528;9.234;2023-07-31T06:15:33;27.80;99.90
40670;DHT22;26355;45.528;9.234;2023-07-31T06:17:59;27.80;99.90
40670;DHT22;26355;45.528;9.234;2023-07-31T06:20:27;27.80;99.90
40670;DHT22;26355;45.528;9.234;2023-07-31T06:22:53;27.80;99.90
40670;DHT22;26355;45.528;9.234;2023-07-31T06:25:18;27.90;99.90
40670;DHT22;26355;45.528;9.234;2023-07-31T06:27:44;27.90;99.90
40670;DHT22;26355;45.528;9.234;2023-07-31T06:30:10;28.00;99.90
40670;DHT22;26355;45.528;9.234;2023-07-31T06:32:35;28.00;99.90
40670;DHT22;26355;45.528;9.234;2023-07-31T06:35:01;28.10;99.90
40670;DHT22;26355;45.528;9.234;2023-07-31T06:37:27;28.10;99.90
40670;DHT22;26355;45.528;9.234;2023-07-31T06:39:52;28.10;99.90
40670;DHT22;26355;45.528;9.234;2023-07-31T06:42:18;28.10;99.90
40670;DHT22;26355;45.528;9.234;2023-07-31T06:44:43;28.10;99.90
40670;DHT22;26355;45.528;9.234;2023-07-31T06:47:09;28.10;99.90
40670;DHT22;26355;45.528;9.234;2023-07-31T06:49:34;28.10;99.90
40670;DHT22;26355;45.528;9.234;2023-07-31T06:52:00;28.10;99.90
40670;DHT22;26355;45.528;9.234;2023-07-31T06:54:25;28.20;99.90
40670;DHT22;26355;45.528;9.234;2023-07-31T06:56:51;28.20;99.90
40670;DHT22;26355;45.528;9.234;2023-07-31T06:59:17;28.20;99.90
40670;DHT22;26355;45.528;9.234;2023-07-31T07:01:42;28.20;99.90
40670;DHT22;26355;45.528;9.234;2023-07-31T07:04:08;28.20;99.90
40670;DHT22;26355;45.528;9.234;2023-07-31T07:06:33;28.30;99.90
40670;DHT22;26355;45.528;9.234;2023-07-31T07:08:59;28.40;99.90
40670;DHT22;26355;45.528;9.234;2023-07-31T07:11:24;28.50;99.90
40670;DHT22;26355;45.528;9.234;2023-07-31T07:13:55;28.60;99.90
40670;DHT22;26355;45.528;9.234;2023-07-31T07:16:20;28.50;99.90
40670;DHT22;26355;45.528;9.234;2023-07-31T07:18:46;28.50;99.90
40670;DHT22;26355;45.528;9.234;2023-07-31T07:21:12;28.50;99.90
40670;DHT22;26355;45.528;9.234;2023-07-31T07:23:41;28.60;99.90
40670;DHT22;26355;45.528;9.234;2023-07-31T07:26:07;28.60;99.90
40670;DHT22;26355;45.528;9.234;2023-07-31T07:28:32;28.60;99.90
40670;DHT22;26355;45.528;9.234;2023-07-31T07:30:58;28.80;99.90
40670;DHT22;26355;45.528;9.234;2023-07-31T07:33:23;28.80;99.90
40670;DHT22;26355;45.528;9.234;2023-07-31T07:35:49;28.70;99.90
40670;DHT22;26355;45.528;9.234;2023-07-31T07:38:15;28.70;99.90
40670;DHT22;26355;45.528;9.234;2023-07-31T07:40:41;28.60;99.90
40670;DHT22;26355;45.528;9.234;2023-07-31T07:43:06;28.70;99.90
40670;DHT22;26355;45.528;9.234;2023-07-31T07:45:32;28.80;99.90
40670;DHT22;26355;45.528;9.234;2023-07-31T07:47:58;28.80;99.90
40670;DHT22;26355;45.528;9.234;2023-07-31T07:50:24;28.80;99.90
40670;DHT22;26355;45.528;9.234;2023-07-31T07:52:50;28.70;99.90
40670;DHT22;26355;45.528;9.234;2023-07-31T07:55:15;28.50;99.90
40670;DHT22;26355;45.528;9.234;2023-07-31T07:57:41;28.70;99.90
40670;DHT22;26355;45.528;9.234;2023-07-31T08:00:07;28.60;99.90
40670;DHT22;26355;45.528;9.234;2023-07-31T08:02:33;28.70;99.90
40670;DHT22;26355;45.528;9.234;2023-07-31T08:04:58;28.70;99.90
40670;DHT22;26355;45.528;9.234;2023-07-31T08:07:24;28.50;99.90
40670;DHT22;26355;45.528;9.234;2023-07-31T08:09:49;28.70;99.90
40670;DHT22;26355;45.528;9.234;2023-07-31T08:12:15;28.70;99.90
40670;DHT22;26355;45.528;9.234;2023-07-31T08:14:40;28.80;99.90
40670;DHT22;26355;45.528;9.234;2023-07-31T08:17:06;28.80;99.90
40670;DHT22;26355;45.528;9.234;2023-07-31T08:19:31;28.80;99.90
40670;DHT22;26355;45.528;9.234;2023-07-31T08:21:57;28.80;99.90
40670;DHT22;26355;45.528;9.234;2023-07-31T08:24:23;28.80;99.90
40670;DHT22;26355;45.528;9.234;2023-07-31T08:26:48;28.90;99.90
40670;DHT22;26355;45.528;9.234;2023-07-31T08:29:14;28.80;99.90
40670;DHT22;26355;45.528;9.234;2023-07-31T08:31:39;28.90;99.90
40670;DHT22;26355;45.528;9.234;2023-07-31T08:34:05;28.80;99.90
40670;DHT22;26355;45.528;9.234;2023-07-31T08:36:31;28.90;99.90
40670;DHT22;26355;45.528;9.234;2023-07-31T08:38:56;29.10;99.90
40670;DHT22;26355;45.528;9.234;2023-07-31T08:41:22;29.20;99.90
40670;DHT22;26355;45.528;9.234;2023-07-31T08:43:49;29.20;99.90
40670;DHT22;26355;45.528;9.234;2023-07-31T08:46:15;29.30;99.90
40670;DHT22;26355;45.528;9.234;2023-07-31T08:48:42;29.30;99.90
40670;DHT22;26355;45.528;9.234;2023-07-31T08:51:08;29.30;99.90
40670;DHT22;26355;45.528;9.234;2023-07-31T08:53:34;29.20;99.90
40670;DHT22;26355;45.528;9.234;2023-07-31T08:56:00;29.20;99.90
40670;DHT22;26355;45.528;9.234;2023-07-31T08:58:28;29.10;99.90
40670;DHT22;26355;45.528;9.234;2023-07-31T09:00:56;29.20;99.90
40670;DHT22;26355;45.528;9.234;2023-07-31T09:03:24;29.30;99.90
40670;DHT22;26355;45.528;9.234;2023-07-31T09:05:51;29.50;99.90
40670;DHT22;26355;45.528;9.234;2023-07-31T09:08:21;29.60;99.90
40670;DHT22;26355;45.528;9.234;2023-07-31T09:10:47;29.70;99.90
40670;DHT22;26355;45.528;9.234;2023-07-31T09:13:14;29.70;99.90
40670;DHT22;26355;45.528;9.234;2023-07-31T09:15:41;29.80;99.90
40670;DHT22;26355;45.528;9.234;2023-07-31T09:18:08;29.90;99.90
40670;DHT22;26355;45.528;9.234;2023-07-31T09:20:34;29.70;99.90
40670;DHT22;26355;45.528;9.234;2023-07-31T09:23:10;29.70;99.90
40670;DHT22;26355;45.528;9.234;2023-07-31T09:25:36;29.80;99.90
40670;DHT22;26355;45.528;9.234;2023-07-31T09:28:11;29.90;99.90
40670;DHT22;26355;45.528;9.234;2023-07-31T09:30:48;29.90;99.90
40670;DHT22;26355;45.528;9.234;2023-07-31T09:33:14;29.90;99.90
40670;DHT22;26355;45.528;9.234;2023-07-31T09:35:40;30.10;99.90
40670;DHT22;26355;45.528;9.234;2023-07-31T09:38:14;30.20;99.90
40670;DHT22;26355;45.528;9.234;2023-07-31T09:40:42;30.30;99.90
40670;DHT22;26355;45.528;9.234;2023-07-31T09:43:09;30.30;99.90
40670;DHT22;26355;45.528;9.234;2023-07-31T09:45:37;30.30;99.90
40670;DHT22;26355;45.528;9.234;2023-07-31T09:48:07;30.10;99.90
40670;DHT22;26355;45.528;9.234;2023-07-31T09:50:39;30.10;99.90
40670;DHT22;26355;45.528;9.234;2023-07-31T09:53:06;30.10;99.90
40670;DHT22;26355;45.528;9.234;2023-07-31T09:55:32;30.10;99.90
40670;DHT22;26355;45.528;9.234;2023-07-31T09:57:58;30.00;99.90
40670;DHT22;26355;45.528;9.234;2023-07-31T10:00:24;30.00;99.90
40670;DHT22;26355;45.528;9.234;2023-07-31T10:02:54;30.00;99.90
40670;DHT22;26355;45.528;9.234;2023-07-31T10:05:22;30.10;99.90
40670;DHT22;26355;45.528;9.234;2023-07-31T10:07:55;30.10;99.90
40670;DHT22;26355;45.528;9.234;2023-07-31T10:10:22;30.10;99.90
40670;DHT22;26355;45.528;9.234;2023-07-31T10:12:49;30.20;99.90
40670;DHT22;26355;45.528;9.234;2023-07-31T10:15:16;30.30;99.90
40670;DHT22;26355;45.528;9.234;2023-07-31T10:17:42;30.50;99.90
40670;DHT22;26355;45.528;9.234;2023-07-31T10:20:08;30.60;99.90
40670;DHT22;26355;45.528;9.234;2023-07-31T10:22:34;30.50;99.90
40670;DHT22;26355;45.528;9.234;2023-07-31T10:25:00;30.60;99.90
40670;DHT22;26355;45.528;9.234;2023-07-31T10:27:26;30.70;99.90
40670;DHT22;26355;45.528;9.234;2023-07-31T10:29:54;30.70;99.90
40670;DHT22;26355;45.528;9.234;2023-07-31T10:32:20;30.70;99.90
40670;DHT22;26355;45.528;9.234;2023-07-31T10:34:47;30.70;99.90
40670;DHT22;26355;45.528;9.234;2023-07-31T10:37:37;30.60;99.90
40670;DHT22;26355;45.528;9.234;2023-07-31T10:40:16;30.70;99.90
40670;DHT22;26355;45.528;9.234;2023-07-31T10:42:49;30.70;99.90
40670;DHT22;26355;45.528;9.234;2023-07-31T10:45:36;30.70;99.90
40670;DHT22;26355;45.528;9.234;2023-07-31T10:48:06;30.70;99.90
40670;DHT22;26355;45.528;9.234;2023-07-31T10:50:33;30.70;99.90
40670;DHT22;26355;45.528;9.234;2023-07-31T10:53:02;30.80;99.90
40670;DHT22;26355;45.528;9.234;2023-07-31T10:55:33;30.70;99.90
40670;DHT22;26355;45.528;9.234;2023-07-31T10:58:13;30.80;99.90
40670;DHT22;26355;45.528;9.234;2023-07-31T11:00:43;30.70;99.90
40670;DHT22;26355;45.528;9.234;2023-07-31T11:03:16;30.70;99.90
40670;DHT22;26355;45.528;9.234;2023-07-31T11:05:55;30.90;99.90
40670;DHT22;26355;45.528;9.234;2023-07-31T11:08:26;30.90;99.90
40670;DHT22;26355;45.528;9.234;2023-07-31T11:11:05;30.90;99.90
40670;DHT22;26355;45.528;9.234;2023-07-31T11:13:53;31.00;99.90
40670;DHT22;26355;45.528;9.234;2023-07-31T11:16:23;30.90;99.90
40670;DHT22;26355;45.528;9.234;2023-07-31T11:18:49;31.00;99.90
40670;DHT22;26355;45.528;9.234;2023-07-31T11:21:21;31.10;99.90
40670;DHT22;26355;45.528;9.234;2023-07-31T11:23:52;31.10;99.90
40670;DHT22;26355;45.528;9.234;2023-07-31T11:26:18;31.10;99.90
40670;DHT22;26355;45.528;9.234;2023-07-31T11:28:47;31.00;99.90
40670;DHT22;26355;45.528;9.234;2023-07-31T11:31:13;31.10;99.90
40670;DHT22;26355;45.528;9.234;2023-07-31T11:33:39;31.20;99.90
40670;DHT22;26355;45.528;9.234;2023-07-31T11:36:05;31.30;99.90
40670;DHT22;26355;45.528;9.234;2023-07-31T11:38:32;31.30;99.90
40670;DHT22;26355;45.528;9.234;2023-07-31T11:41:00;31.40;99.90
40670;DHT22;26355;45.528;9.234;2023-07-31T11:43:26;31.40;99.90
40670;DHT22;26355;45.528;9.234;2023-07-31T11:45:58;31.40;99.90
40670;DHT22;26355;45.528;9.234;2023-07-31T11:48:29;31.50;99.90
40670;DHT22;26355;45.528;9.234;2023-07-31T11:51:03;31.70;99.90
40670;DHT22;26355;45.528;9.234;2023-07-31T11:53:51;31.70;99.90
40670;DHT22;26355;45.528;9.234;2023-07-31T11:56:18;31.70;99.90
40670;DHT22;26355;45.528;9.234;2023-07-31T11:58:47;31.60;99.90
40670;DHT22;26355;45.528;9.234;2023-07-31T12:01:15;31.50;99.90
40670;DHT22;26355;45.528;9.234;2023-07-31T12:03:41;31.50;99.90
40670;DHT22;26355;45.528;9.234;2023-07-31T12:06:08;31.60;99.90
40670;DHT22;26355;45.528;9.234;2023-07-31T12:08:33;31.50;99.90
40670;DHT22;26355;45.528;9.234;2023-07-31T12:11:06;31.60;99.90
40670;DHT22;26355;45.528;9.234;2023-07-31T12:13:33;31.50;99.90
40670;DHT22;26355;45.528;9.234;2023-07-31T12:16:00;31.60;99.90
40670;DHT22;26355;45.528;9.234;2023-07-31T12:18:29;31.70;99.90
40670;DHT22;26355;45.528;9.234;2023-07-31T12:20:57;31.70;99.90
40670;DHT22;26355;45.528;9.234;2023-07-31T12:23:26;31.70;99.90
40670;DHT22;26355;45.528;9.234;2023-07-31T12:28:42;31.70;99.90
40670;DHT22;26355;45.528;9.234;2023-07-31T12:31:10;31.80;99.90
40670;DHT22;26355;45.528;9.234;2023-07-31T12:33:37;31.80;99.90
40670;DHT22;26355;45.528;9.234;2023-07-31T12:36:07;31.90;99.90
40670;DHT22;26355;45.528;9.234;2023-07-31T12:38:33;31.80;99.90
40670;DHT22;26355;45.528;9.234;2023-07-31T12:40:59;31.70;99.90
40670;DHT22;26355;45.528;9.234;2023-07-31T12:43:24;31.70;99.90
40670;DHT22;26355;45.528;9.234;2023-07-31T12:45:50;31.70;99.90
40670;DHT22;26355;45.528;9.234;2023-07-31T12:48:16;31.70;99.90
40670;DHT22;26355;45.528;9.234;2023-07-31T12:50:41;31.60;99.90
40670;DHT22;26355;45.528;9.234;2023-07-31T12:53:07;31.50;99.90
40670;DHT22;26355;45.528;9.234;2023-07-31T12:55:33;31.60;99.90
40670;DHT22;26355;45.528;9.234;2023-07-31T13:08:55;31.50;99.90
40670;DHT22;26355;45.528;9.234;2023-07-31T13:25:52;31.70;99.90
40670;DHT22;26355;45.528;9.234;2023-07-31T13:32:49;31.60;99.90
40670;DHT22;26355;45.528;9.234;2023-07-31T13:36:07;31.60;99.90
40670;DHT22;26355;45.528;9.234;2023-07-31T13:42:55;31.60;99.90
40670;DHT22;26355;45.528;9.234;2023-07-31T13:45:59;31.60;99.90
40670;DHT22;26355;45.528;9.234;2023-07-31T13:48:34;31.70;99.90
40670;DHT22;26355;45.528;9.234;2023-07-31T13:50:59;31.60;99.90
40670;DHT22;26355;45.528;9.234;2023-07-31T13:53:25;31.60;99.90
40670;DHT22;26355;45.528;9.234;2023-07-31T13:55:51;31.60;99.90
40670;DHT22;26355;45.528;9.234;2023-07-31T13:58:17;31.60;99.90
40670;DHT22;26355;45.528;9.234;2023-07-31T14:00:55;31.50;99.90
40670;DHT22;26355;45.528;9.234;2023-07-31T14:03:23;31.50;99.90
40670;DHT22;26355;45.528;9.234;2023-07-31T14:05:49;31.50;99.90
40670;DHT22;26355;45.528;9.234;2023-07-31T14:08:14;31.50;99.90
40670;DHT22;26355;45.528;9.234;2023-07-31T14:10:40;31.40;99.90
40670;DHT22;26355;45.528;9.234;2023-07-31T14:13:06;31.40;99.90
40670;DHT22;26355;45.528;9.234;2023-07-31T14:15:31;31.50;99.90
40670;DHT22;26355;45.528;9.234;2023-07-31T14:18:00;31.60;99.90
40670;DHT22;26355;45.528;9.234;2023-07-31T14:20:26;31.70;99.90
40670;DHT22;26355;45.528;9.234;2023-07-31T14:22:51;31.60;99.90
40670;DHT22;26355;45.528;9.234;2023-07-31T14:25:17;31.60;99.90
40670;DHT22;26355;45.528;9.234;2023-07-31T14:27:42;31.60;99.90
40670;DHT22;26355;45.528;9.234;2023-07-31T14:30:08;31.60;99.90
40670;DHT22;26355;45.528;9.234;2023-07-31T14:32:49;31.60;99.90
40670;DHT22;26355;45.528;9.234;2023-07-31T14:35:14;31.50;99.90
40670;DHT22;26355;45.528;9.234;2023-07-31T14:37:42;31.50;99.90
40670;DHT22;26355;45.528;9.234;2023-07-31T14:40:10;31.60;99.90
40670;DHT22;26355;45.528;9.234;2023-07-31T14:42:36;31.60;99.90
40670;DHT22;26355;45.528;9.234;2023-07-31T14:45:03;31.50;99.90
40670;DHT22;26355;45.528;9.234;2023-07-31T14:47:29;31.50;99.90
40670;DHT22;26355;45.528;9.234;2023-07-31T14:49:56;31.30;99.90
40670;DHT22;26355;45.528;9.234;2023-07-31T14:52:22;31.30;99.90
40670;DHT22;26355;45.528;9.234;2023-07-31T14:54:47;31.20;99.90
40670;DHT22;26355;45.528;9.234;2023-07-31T14:57:13;31.40;99.90
40670;DHT22;26355;45.528;9.234;2023-07-31T14:59:39;31.30;99.90
40670;DHT22;26355;45.528;9.234;2023-07-31T15:02:05;31.30;99.90
40670;DHT22;26355;45.528;9.234;2023-07-31T15:04:31;31.20;99.90
40670;DHT22;26355;45.528;9.234;2023-07-31T15:06:56;31.20;99.90
40670;DHT22;26355;45.528;9.234;2023-07-31T15:09:22;31.30;99.90
40670;DHT22;26355;45.528;9.234;2023-07-31T15:11:47;31.40;99.90
40670;DHT22;26355;45.528;9.234;2023-07-31T15:14:13;31.30;99.90
40670;DHT22;26355;45.528;9.234;2023-07-31T15:51:04;31.20;99.90
40670;DHT22;26355;45.528;9.234;2023-07-31T15:53:30;31.40;99.90
40670;DHT22;26355;45.528;9.234;2023-07-31T15:55:57;31.40;99.90
40670;DHT22;26355;45.528;9.234;2023-07-31T15:58:23;31.20;99.90
40670;DHT22;26355;45.528;9.234;2023-07-31T16:00:52;31.20;99.90
40670;DHT22;26355;45.528;9.234;2023-07-31T16:03:23;31.20;99.90
40670;DHT22;26355;45.528;9.234;2023-07-31T16:05:55;31.20;99.90
40670;DHT22;26355;45.528;9.234;2023-07-31T16:08:24;31.40;99.90
40670;DHT22;26355;45.528;9.234;2023-07-31T16:14:31;31.40;99.90
40670;DHT22;26355;45.528;9.234;2023-07-31T16:17:08;31.40;99.90
40670;DHT22;26355;45.528;9.234;2023-07-31T16:19:39;31.40;99.90
40670;DHT22;26355;45.528;9.234;2023-07-31T16:22:05;31.40;99.90
40670;DHT22;26355;45.528;9.234;2023-07-31T16:24:31;31.40;99.90
40670;DHT22;26355;45.528;9.234;2023-07-31T16:27:11;31.40;99.90
40670;DHT22;26355;45.528;9.234;2023-07-31T16:29:40;31.40;99.90
40670;DHT22;26355;45.528;9.234;2023-07-31T16:32:07;31.40;99.90
40670;DHT22;26355;45.528;9.234;2023-07-31T16:34:33;31.40;99.90
40670;DHT22;26355;45.528;9.234;2023-07-31T16:37:06;31.50;99.90
40670;DHT22;26355;45.528;9.234;2023-07-31T16:39:37;31.40;99.90
40670;DHT22;26355;45.528;9.234;2023-07-31T16:42:22;31.40;99.90
40670;DHT22;26355;45.528;9.234;2023-07-31T16:44:50;31.40;99.90
40670;DHT22;26355;45.528;9.234;2023-07-31T16:47:15;31.40;99.90
40670;DHT22;26355;45.528;9.234;2023-07-31T16:52:26;31.40;99.90
40670;DHT22;26355;45.528;9.234;2023-07-31T16:54:57;31.40;99.90
40670;DHT22;26355;45.528;9.234;2023-07-31T16:57:22;31.40;99.90
40670;DHT22;26355;45.528;9.234;2023-07-31T16:59:56;31.40;99.90
40670;DHT22;26355;45.528;9.234;2023-07-31T17:02:27;31.40;99.90
40670;DHT22;26355;45.528;9.234;2023-07-31T17:05:13;31.50;99.90
40670;DHT22;26355;45.528;9.234;2023-07-31T17:07:39;31.40;99.90
40670;DHT22;26355;45.528;9.234;2023-07-31T17:10:07;31.50;99.90
40670;DHT22;26355;45.528;9.234;2023-07-31T17:12:33;31.50;99.90
40670;DHT22;26355;45.528;9.234;2023-07-31T17:14:59;31.40;99.90
40670;DHT22;26355;45.528;9.234;2023-07-31T17:17:24;31.40;99.90
40670;DHT22;26355;45.528;9.234;2023-07-31T17:19:51;31.40;99.90
40670;DHT22;26355;45.528;9.234;2023-07-31T17:22:16;31.40;99.90
40670;DHT22;26355;45.528;9.234;2023-07-31T17:24:42;31.40;99.90
40670;DHT22;26355;45.528;9.234;2023-07-31T17:27:08;31.40;99.90
40670;DHT22;26355;45.528;9.234;2023-07-31T17:29:33;31.40;99.90
40670;DHT22;26355;45.528;9.234;2023-07-31T17:31:59;31.40;99.90
40670;DHT22;26355;45.528;9.234;2023-07-31T17:34:25;31.40;99.90
40670;DHT22;26355;45.528;9.234;2023-07-31T17:36:51;31.30;99.90
40670;DHT22;26355;45.528;9.234;2023-07-31T17:39:16;31.20;99.90
40670;DHT22;26355;45.528;9.234;2023-07-31T17:41:52;31.20;99.90
40670;DHT22;26355;45.528;9.234;2023-07-31T17:44:40;31.10;99.90
40670;DHT22;26355;45.528;9.234;2023-07-31T17:47:17;31.20;99.90
40670;DHT22;26355;45.528;9.234;2023-07-31T17:49:54;31.20;99.90
40670;DHT22;26355;45.528;9.234;2023-07-31T18:17:13;31.00;99.90
40670;DHT22;26355;45.528;9.234;2023-07-31T18:20:11;31.00;99.90
40670;DHT22;26355;45.528;9.234;2023-07-31T18:23:02;31.00;99.90
40670;DHT22;26355;45.528;9.234;2023-07-31T18:25:30;31.00;99.90
40670;DHT22;26355;45.528;9.234;2023-07-31T18:27:56;31.10;99.90
40670;DHT22;26355;45.528;9.234;2023-07-31T18:30:24;31.00;99.90
40670;DHT22;26355;45.528;9.234;2023-07-31T18:32:50;31.00;99.90
40670;DHT22;26355;45.528;9.234;2023-07-31T18:35:15;31.10;99.90
40670;DHT22;26355;45.528;9.234;2023-07-31T18:37:44;31.10;99.90
40670;DHT22;26355;45.528;9.234;2023-07-31T18:40:11;31.10;99.90